createdAt,value
2018-02-19T00:00:38.341Z,80.40
2018-02-19T00:03:06.522Z,79.10
2018-02-19T00:05:37.743Z,80.40
2018-02-19T00:08:05.912Z,82.70
2018-02-19T00:10:53.195Z,80.20
2018-02-19T00:13:21.347Z,80.00
2018-02-19T00:15:56.924Z,80.00
2018-02-19T00:18:37.102Z,79.80
2018-02-19T00:21:05.291Z,80.30
2018-02-19T00:23:45.727Z,82.40
2018-02-19T00:29:09.959Z,86.00
2018-02-19T00:31:40.198Z,87.20
2018-02-19T00:34:08.365Z,88.60
2018-02-19T00:36:36.547Z,87.40
2018-02-19T00:39:04.773Z,86.00
2018-02-19T00:41:32.941Z,85.60
2018-02-19T00:44:01.102Z,84.90
2018-02-19T00:46:29.290Z,85.70
2018-02-19T00:48:57.469Z,87.00
2018-02-19T00:51:26.109Z,88.00
2018-02-19T00:53:54.279Z,89.00
2018-02-19T00:56:25.830Z,87.00
2018-02-19T00:58:54.344Z,87.20
2018-02-19T01:01:22.526Z,87.90
2018-02-19T01:03:51.540Z,89.40
2018-02-19T01:06:20.580Z,90.30
2018-02-19T01:08:48.731Z,90.30
2018-02-19T01:11:17.832Z,91.10
2018-02-19T01:13:46.004Z,90.90
2018-02-19T01:16:15.296Z,90.70
2018-02-19T01:18:43.463Z,88.20
2018-02-19T01:21:12.382Z,87.60
2018-02-19T01:23:40.557Z,87.50
2018-02-19T01:26:08.885Z,85.90
2018-02-19T01:28:37.050Z,87.60
2018-02-19T01:31:05.220Z,86.00
2018-02-19T01:33:34.179Z,88.70
2018-02-19T01:36:09.203Z,88.70
2018-02-19T01:38:38.959Z,86.90
2018-02-19T01:41:07.114Z,89.30
2018-02-19T01:43:35.278Z,91.10
2018-02-19T01:46:03.492Z,90.60
2018-02-19T01:48:31.659Z,91.50
2018-02-19T01:50:59.850Z,91.80
2018-02-19T01:53:28.783Z,91.20
2018-02-19T01:56:00.264Z,90.90
2018-02-19T01:58:28.493Z,89.80
2018-02-19T02:00:56.650Z,89.90
2018-02-19T02:03:25.586Z,89.20
2018-02-19T02:05:53.742Z,89.20
2018-02-19T02:08:21.904Z,88.40
2018-02-19T02:10:50.089Z,87.60
2018-02-19T02:13:18.266Z,86.10
2018-02-19T02:15:46.421Z,84.40
2018-02-19T02:18:14.602Z,81.50
2018-02-19T02:20:42.777Z,81.30
2018-02-19T02:23:10.945Z,81.90
2018-02-19T02:25:39.951Z,82.10
2018-02-19T02:28:08.116Z,82.10
2018-02-19T02:30:36.507Z,82.70
2018-02-19T02:33:04.691Z,80.50
2018-02-19T02:35:33.861Z,81.40
2018-02-19T02:38:02.025Z,82.00
2018-02-19T02:40:30.952Z,82.60
2018-02-19T02:42:59.119Z,82.60
2018-02-19T02:45:27.406Z,81.40
2018-02-19T02:47:55.583Z,80.40
2018-02-19T02:50:23.754Z,80.20
2018-02-19T02:52:51.922Z,79.70
2018-02-19T02:55:24.015Z,79.70
2018-02-19T02:57:52.267Z,79.00
2018-02-19T03:00:20.464Z,77.40
2018-02-19T03:02:48.624Z,80.00
2018-02-19T03:05:16.892Z,80.40
2018-02-19T03:07:45.068Z,79.50
2018-02-19T03:10:13.258Z,81.40
2018-02-19T03:12:42.064Z,81.70
2018-02-19T03:15:11.224Z,83.80
2018-02-19T03:17:39.405Z,81.70
2018-02-19T03:20:08.358Z,81.90
2018-02-19T03:22:36.568Z,81.90
2018-02-19T03:25:04.952Z,82.70
2018-02-19T03:27:33.126Z,81.30
2018-02-19T03:30:01.291Z,82.90
2018-02-19T03:32:29.521Z,82.00
2018-02-19T03:34:58.510Z,83.70
2018-02-19T03:37:26.687Z,83.80
2018-02-19T03:39:55.457Z,83.60
2018-02-19T03:42:23.622Z,83.90
2018-02-19T03:44:51.807Z,81.60
2018-02-19T03:47:19.956Z,80.40
2018-02-19T03:49:48.129Z,81.30
2018-02-19T03:52:16.316Z,80.90
2018-02-19T03:54:44.650Z,80.20
2018-02-19T03:57:12.814Z,81.10
2018-02-19T03:59:42.131Z,83.60
2018-02-19T04:02:10.743Z,83.60
2018-02-19T04:04:38.904Z,84.10
2018-02-19T04:07:07.098Z,82.70
2018-02-19T04:09:35.265Z,81.30
2018-02-19T04:12:03.664Z,81.60
2018-02-19T04:14:31.836Z,81.20
2018-02-19T04:17:00.056Z,82.00
2018-02-19T04:19:29.120Z,83.20
2018-02-19T04:21:57.279Z,81.70
2018-02-19T04:24:25.447Z,82.30
2018-02-19T04:26:57.380Z,81.50
2018-02-19T04:29:25.778Z,81.40
2018-02-19T04:31:53.933Z,82.30
2018-02-19T04:34:22.108Z,81.90
2018-02-19T04:36:50.272Z,82.10
2018-02-19T04:39:18.444Z,82.00
2018-02-19T04:41:46.621Z,84.20
2018-02-19T04:47:05.790Z,83.00
2018-02-19T04:49:34.337Z,83.40
2018-02-19T04:52:03.257Z,84.90
2018-02-19T04:54:32.192Z,78.30
2018-02-19T04:57:00.458Z,78.40
2018-02-19T04:59:28.958Z,79.70
2018-02-19T05:01:57.139Z,81.40
2018-02-19T05:04:32.968Z,82.30
2018-02-19T05:07:06.659Z,81.50
2018-02-19T05:09:35.558Z,81.20
2018-02-19T05:12:03.840Z,81.50
2018-02-19T05:14:32.001Z,78.80
2018-02-19T05:17:00.184Z,78.70
2018-02-19T05:19:28.352Z,79.40
2018-02-19T05:21:56.524Z,81.50
2018-02-19T05:24:24.697Z,80.90
2018-02-19T05:26:53.895Z,83.00
2018-02-19T05:29:22.049Z,81.00
2018-02-19T05:31:51.071Z,80.20
2018-02-19T05:34:19.246Z,80.20
2018-02-19T05:36:47.404Z,80.30
2018-02-19T05:39:15.632Z,76.50
2018-02-19T05:41:43.821Z,76.90
2018-02-19T05:44:11.982Z,77.40
2018-02-19T05:46:43.804Z,79.60
2018-02-19T05:49:12.078Z,77.90
2018-02-19T05:51:40.236Z,77.40
2018-02-19T05:54:08.397Z,77.90
2018-02-19T05:56:36.708Z,79.80
2018-02-19T05:59:04.865Z,79.80
2018-02-19T06:01:33.289Z,78.10
2018-02-19T06:04:02.176Z,78.30
2018-02-19T06:06:30.402Z,77.30
2018-02-19T06:08:59.336Z,74.00
2018-02-19T06:11:27.491Z,74.00
2018-02-19T06:13:55.696Z,75.00
2018-02-19T06:16:23.918Z,76.40
2018-02-19T06:18:53.770Z,80.50
2018-02-19T06:21:21.924Z,80.60
2018-02-19T06:23:50.090Z,79.80
2018-02-19T06:26:21.344Z,75.30
2018-02-19T06:28:49.508Z,75.90
2018-02-19T06:31:20.984Z,76.10
2018-02-19T06:33:49.140Z,78.30
2018-02-19T06:36:17.324Z,80.50
2018-02-19T06:38:45.482Z,79.80
2018-02-19T06:41:13.650Z,80.10
2018-02-19T06:43:42.577Z,78.70
2018-02-19T06:46:10.810Z,77.50
2018-02-19T06:48:38.972Z,78.30
2018-02-19T06:51:07.914Z,78.60
2018-02-19T06:53:36.843Z,78.10
2018-02-19T06:56:05.124Z,78.10
2018-02-19T06:58:33.280Z,74.90
2018-02-19T07:01:01.433Z,76.50
2018-02-19T07:03:29.751Z,78.20
2018-02-19T07:05:58.874Z,77.70
2018-02-19T07:08:27.062Z,78.70
2018-02-19T07:10:55.568Z,77.70
2018-02-19T07:13:23.754Z,73.80
2018-02-19T07:15:52.241Z,74.00
2018-02-19T07:18:21.880Z,74.50
2018-02-19T07:20:50.038Z,74.10
2018-02-19T07:23:18.354Z,74.90
2018-02-19T07:25:46.717Z,74.70
2018-02-19T07:28:14.880Z,74.30
2018-02-19T07:30:43.069Z,74.00
2018-02-19T07:33:11.230Z,73.10
2018-02-19T07:35:47.722Z,71.20
2018-02-19T07:41:11.414Z,72.20
2018-02-19T07:43:42.547Z,70.60
2018-02-19T07:46:20.962Z,68.80
2018-02-19T07:48:57.604Z,69.90
2018-02-19T07:51:25.753Z,71.00
2018-02-19T07:57:08.462Z,67.60
2018-02-19T07:59:36.613Z,70.60
2018-02-19T08:02:16.307Z,69.90
2018-02-19T08:04:44.454Z,68.40
2018-02-19T08:07:12.636Z,66.10
2018-02-19T08:09:40.852Z,67.70
2018-02-19T08:12:09.008Z,69.10
2018-02-19T08:14:37.159Z,67.40
2018-02-19T08:17:16.059Z,67.20
2018-02-19T08:19:44.554Z,65.40
2018-02-19T08:22:13.750Z,66.70
2018-02-19T08:24:42.863Z,64.30
2018-02-19T08:27:11.037Z,64.10
2018-02-19T08:29:39.204Z,63.50
2018-02-19T08:32:07.376Z,61.50
2018-02-19T08:34:35.597Z,62.20
2018-02-19T08:37:12.690Z,63.80
2018-02-19T08:39:41.923Z,61.50
2018-02-19T08:42:10.100Z,62.90
2018-02-19T08:44:38.285Z,60.40
2018-02-19T08:47:14.638Z,60.60
2018-02-19T08:49:42.790Z,59.40
2018-02-19T08:52:17.834Z,58.80
2018-02-19T08:54:46.707Z,58.50
2018-02-19T08:57:14.918Z,60.00
2018-02-19T08:59:43.088Z,61.80
2018-02-19T09:02:11.663Z,63.30
2018-02-19T09:04:39.815Z,60.30
2018-02-19T09:07:14.218Z,59.00
2018-02-19T09:09:42.376Z,60.40
2018-02-19T09:15:04.586Z,63.80
2018-02-19T09:17:32.763Z,58.70
2018-02-19T09:20:00.913Z,61.80
2018-02-19T09:22:29.091Z,58.60
2018-02-19T09:24:57.299Z,58.20
2018-02-19T09:27:25.469Z,58.70
2018-02-19T09:29:53.755Z,56.80
2018-02-19T09:32:22.347Z,58.30
2018-02-19T09:34:50.500Z,59.50
2018-02-19T09:37:18.663Z,58.60
2018-02-19T09:39:46.830Z,60.30
2018-02-19T09:42:15.789Z,56.50
2018-02-19T09:44:43.969Z,56.60
2018-02-19T09:47:12.549Z,54.30
2018-02-19T09:49:40.724Z,55.60
2018-02-19T09:52:08.888Z,57.70
2018-02-19T09:54:37.060Z,55.60
2018-02-19T09:57:05.312Z,52.20
2018-02-19T09:59:33.465Z,51.50
2018-02-19T10:02:01.685Z,54.50
2018-02-19T10:04:30.176Z,55.00
2018-02-19T10:06:58.405Z,52.70
2018-02-19T10:09:26.581Z,52.20
2018-02-19T10:11:55.508Z,53.70
2018-02-19T10:14:24.053Z,51.60
2018-02-19T10:16:52.325Z,52.00
2018-02-19T10:19:20.739Z,53.60
2018-02-19T10:21:48.906Z,51.00
2018-02-19T10:24:17.102Z,52.70
2018-02-19T10:26:48.484Z,54.40
2018-02-19T10:29:16.776Z,53.30
2018-02-19T10:31:44.947Z,51.20
2018-02-19T10:34:13.127Z,53.70
2018-02-19T10:36:41.395Z,52.20
2018-02-19T10:39:09.570Z,54.10
2018-02-19T10:41:37.746Z,55.40
2018-02-19T10:44:05.917Z,54.70
2018-02-19T10:46:35.122Z,54.60
2018-02-19T10:49:03.306Z,53.60
2018-02-19T10:51:31.481Z,53.00
2018-02-19T10:53:59.663Z,52.70
2018-02-19T10:56:28.830Z,55.00
2018-02-19T10:58:57.002Z,55.00
2018-02-19T11:01:25.186Z,52.80
2018-02-19T11:03:53.359Z,52.30
2018-02-19T11:06:25.226Z,52.80
2018-02-19T11:08:53.484Z,51.90
2018-02-19T11:11:21.663Z,52.60
2018-02-19T11:13:50.044Z,47.50
2018-02-19T11:16:18.319Z,47.40
2018-02-19T11:18:46.499Z,46.70
2018-02-19T11:21:14.645Z,49.20
2018-02-19T11:23:42.816Z,48.10
2018-02-19T11:26:11.017Z,51.90
2018-02-19T11:28:39.176Z,46.10
2018-02-19T11:31:08.336Z,47.60
2018-02-19T11:33:36.497Z,47.60
2018-02-19T11:36:04.975Z,49.50
2018-02-19T11:38:33.149Z,49.60
2018-02-19T11:41:01.389Z,47.90
2018-02-19T11:43:29.560Z,50.70
2018-02-19T11:46:02.175Z,51.80
2018-02-19T11:48:30.427Z,53.40
2018-02-19T11:50:58.596Z,53.80
2018-02-19T11:53:26.782Z,52.10
2018-02-19T11:55:55.053Z,50.10
2018-02-19T11:58:23.231Z,48.40
2018-02-19T12:00:52.284Z,49.90
2018-02-19T12:03:21.985Z,51.40
2018-02-19T12:05:51.234Z,51.40
2018-02-19T12:08:19.522Z,49.70
2018-02-19T12:10:48.100Z,47.70
2018-02-19T12:13:16.304Z,45.90
2018-02-19T12:15:44.811Z,43.70
2018-02-19T12:18:14.794Z,46.90
2018-02-19T12:20:44.415Z,46.90
2018-02-19T12:23:12.671Z,44.80
2018-02-19T12:25:41.426Z,48.00
2018-02-19T12:28:09.598Z,48.10
2018-02-19T12:30:37.782Z,49.00
2018-02-19T12:33:06.392Z,50.10
2018-02-19T12:35:35.411Z,54.20
2018-02-19T12:38:04.525Z,54.30
2018-02-19T12:40:32.706Z,54.90
2018-02-19T12:43:01.631Z,52.70
2018-02-19T12:45:33.781Z,52.70
2018-02-19T12:48:02.022Z,52.40
2018-02-19T12:50:30.312Z,55.40
2018-02-19T12:52:59.686Z,54.10
2018-02-19T12:55:30.108Z,54.10
2018-02-19T12:57:58.385Z,55.00
2018-02-19T13:00:27.822Z,55.40
2018-02-19T13:02:56.474Z,55.30
2018-02-19T13:05:25.456Z,57.00
2018-02-19T13:07:53.634Z,55.50
2018-02-19T13:10:21.798Z,52.80
2018-02-19T13:12:49.990Z,55.60
2018-02-19T13:15:33.129Z,51.90
2018-02-19T13:18:01.516Z,53.90
2018-02-19T13:20:29.741Z,52.20
2018-02-19T13:22:58.136Z,54.50
2018-02-19T13:25:31.711Z,54.80
2018-02-19T13:27:59.956Z,55.70
2018-02-19T13:30:28.130Z,53.40
2018-02-19T13:32:59.186Z,54.10
2018-02-19T13:35:32.521Z,54.30
2018-02-19T13:38:06.325Z,51.60
2018-02-19T13:40:34.510Z,49.70
2018-02-19T13:43:02.721Z,52.20
2018-02-19T13:45:42.447Z,54.30
2018-02-19T13:48:10.694Z,54.40
2018-02-19T13:50:41.369Z,52.50
2018-02-19T13:53:09.550Z,52.80
2018-02-19T13:55:37.782Z,51.70
2018-02-19T14:03:24.847Z,51.30
2018-02-19T14:08:31.869Z,51.70
2018-02-19T14:11:00.133Z,49.80
2018-02-19T14:13:29.077Z,55.10
2018-02-19T14:16:00.694Z,53.80
2018-02-19T14:18:29.772Z,53.50
2018-02-19T14:20:57.937Z,52.90
2018-02-19T14:23:26.096Z,53.40
2018-02-19T14:25:54.893Z,53.40
2018-02-19T14:28:23.076Z,56.30
2018-02-19T14:30:51.234Z,55.80
2018-02-19T14:33:19.397Z,56.10
2018-02-19T14:35:48.776Z,58.10
2018-02-19T14:38:17.682Z,55.00
2018-02-19T14:40:45.848Z,55.00
2018-02-19T14:43:14.014Z,55.90
2018-02-19T14:45:43.066Z,55.10
2018-02-19T14:48:11.222Z,55.10
2018-02-19T14:50:39.405Z,56.40
2018-02-19T14:53:07.589Z,56.50
2018-02-19T14:55:36.727Z,59.80
2018-02-19T14:58:04.940Z,60.10
2018-02-19T15:00:33.178Z,58.90
2018-02-19T15:03:01.332Z,60.10
2018-02-19T15:05:30.446Z,60.20
2018-02-19T15:07:58.626Z,60.90
2018-02-19T15:10:26.805Z,61.80
2018-02-19T15:12:55.028Z,58.10
2018-02-19T15:15:24.925Z,57.00
2018-02-19T15:17:53.062Z,58.60
2018-02-19T15:20:21.227Z,60.80
2018-02-19T15:22:49.396Z,59.20
2018-02-19T15:25:17.688Z,59.60
2018-02-19T15:27:45.847Z,61.70
2018-02-19T15:30:14.776Z,57.20
2018-02-19T15:32:42.938Z,57.20
2018-02-19T15:35:15.533Z,58.70
2018-02-19T15:37:43.779Z,58.00
2018-02-19T15:40:11.931Z,60.80
2018-02-19T15:42:40.862Z,61.50
2018-02-19T15:45:09.643Z,61.40
2018-02-19T15:47:37.798Z,60.80
2018-02-19T15:50:06.113Z,61.80
2018-02-19T15:52:34.309Z,61.70
2018-02-19T15:55:02.527Z,64.50
2018-02-19T15:57:30.704Z,64.80
2018-02-19T15:59:58.858Z,61.70
2018-02-19T16:02:28.294Z,66.40
2018-02-19T16:04:56.470Z,66.50
2018-02-19T16:07:24.642Z,57.90
2018-02-19T16:09:52.833Z,60.10
2018-02-19T16:12:21.071Z,61.30
2018-02-19T16:14:49.242Z,61.30
2018-02-19T16:17:20.362Z,61.10
2018-02-19T16:19:48.552Z,61.10
2018-02-19T16:22:16.694Z,63.00
2018-02-19T16:24:44.859Z,64.80
2018-02-19T16:27:13.025Z,65.90
2018-02-19T16:29:42.491Z,64.10
2018-02-19T16:32:10.647Z,59.00
2018-02-19T16:34:39.894Z,61.70
2018-02-19T16:37:08.126Z,61.60
2018-02-19T16:39:37.216Z,64.30
2018-02-19T16:42:05.735Z,61.80
2018-02-19T16:44:33.974Z,62.40
2018-02-19T16:47:02.600Z,62.50
2018-02-19T16:49:30.912Z,63.90
2018-02-19T16:51:59.153Z,61.50
2018-02-19T16:54:27.476Z,63.70
2018-02-19T16:56:55.639Z,64.30
2018-02-19T16:59:23.808Z,62.40
2018-02-19T17:01:51.986Z,64.60
2018-02-19T17:04:20.144Z,63.10
2018-02-19T17:06:49.685Z,64.10
2018-02-19T17:09:17.837Z,67.30
2018-02-19T17:11:46.029Z,70.00
2018-02-19T17:14:14.197Z,68.10
2018-02-19T17:16:42.418Z,72.20
2018-02-19T17:19:11.163Z,71.40
2018-02-19T17:21:39.341Z,72.10
2018-02-19T17:24:08.352Z,72.60
2018-02-19T17:26:37.582Z,67.60
2018-02-19T17:29:05.770Z,68.00
2018-02-19T17:31:33.939Z,67.60
2018-02-19T17:34:02.109Z,68.90
2018-02-19T17:36:30.281Z,71.60
2018-02-19T17:38:58.443Z,71.80
2018-02-19T17:41:26.606Z,73.50
2018-02-19T17:43:54.766Z,73.60
2018-02-19T17:46:23.798Z,76.60
2018-02-19T17:48:51.967Z,76.60
2018-02-19T17:51:20.131Z,76.10
2018-02-19T17:53:48.320Z,74.90
2018-02-19T17:56:16.486Z,73.60
2018-02-19T17:58:44.729Z,74.30
2018-02-19T18:01:12.898Z,76.00
2018-02-19T18:03:41.057Z,78.30
2018-02-19T18:06:10.216Z,77.80
2018-02-19T18:08:39.284Z,77.70
2018-02-19T18:11:08.947Z,79.60
2018-02-19T18:13:37.101Z,79.60
2018-02-19T18:16:05.722Z,78.40
2018-02-19T18:18:34.046Z,79.20
2018-02-19T18:21:02.827Z,79.30
2018-02-19T18:23:30.998Z,79.20
2018-02-19T18:25:59.285Z,80.20
2018-02-19T18:28:27.457Z,77.60
2018-02-19T18:30:55.648Z,76.70
2018-02-19T18:33:23.818Z,76.10
2018-02-19T18:35:52.994Z,74.10
2018-02-19T18:38:21.152Z,76.60
2018-02-19T18:40:50.077Z,78.80
2018-02-19T18:43:18.252Z,78.80
2018-02-19T18:45:46.765Z,78.60
2018-02-19T18:48:14.926Z,80.10
2018-02-19T18:50:43.111Z,73.90
2018-02-19T18:53:11.263Z,74.50
2018-02-19T18:55:45.669Z,76.50
2018-02-19T18:58:13.832Z,78.70
2018-02-19T19:00:42.112Z,76.60
2018-02-19T19:03:10.280Z,76.60
2018-02-19T19:05:42.608Z,75.60
2018-02-19T19:08:22.708Z,75.60
2018-02-19T19:10:51.696Z,74.60
2018-02-19T19:13:19.872Z,75.20
2018-02-19T19:15:48.155Z,76.90
2018-02-19T19:18:16.311Z,77.20
2018-02-19T19:20:46.200Z,76.90
2018-02-19T19:23:14.352Z,76.90
2018-02-19T19:25:47.066Z,77.40
2018-02-19T19:28:16.037Z,77.80
2018-02-19T19:30:47.706Z,77.90
2018-02-19T19:33:15.885Z,78.90
2018-02-19T19:35:45.117Z,79.00
2018-02-19T19:38:13.331Z,78.00
2018-02-19T19:40:41.502Z,77.90
2018-02-19T19:43:09.694Z,77.10
2018-02-19T19:45:39.279Z,77.60
2018-02-19T19:48:07.526Z,77.30
2018-02-19T19:50:36.536Z,76.80
2018-02-19T19:53:05.853Z,78.80
2018-02-19T19:55:34.243Z,76.80
2018-02-19T19:58:02.718Z,78.00
2018-02-19T20:00:31.734Z,77.10
2018-02-19T20:03:02.234Z,78.50
2018-02-19T20:05:36.391Z,77.90
2018-02-19T20:08:05.863Z,78.30
2018-02-19T20:10:35.248Z,79.80
2018-02-19T20:13:04.656Z,80.10
2018-02-19T20:15:33.509Z,80.50
2018-02-19T20:18:07.353Z,80.50
2018-02-19T20:23:14.853Z,79.50
2018-02-19T20:25:46.309Z,81.10
2018-02-19T20:28:15.601Z,81.20
2018-02-19T20:30:45.309Z,81.40
2018-02-19T20:33:13.602Z,81.40
2018-02-19T20:35:42.784Z,81.60
2018-02-19T20:38:11.660Z,81.80
2018-02-19T20:40:41.434Z,81.40
2018-02-19T20:43:14.023Z,81.20
2018-02-19T20:45:49.637Z,80.30
2018-02-19T20:48:20.063Z,79.60
2018-02-19T20:50:51.241Z,79.60
2018-02-19T20:53:30.189Z,80.50
2018-02-19T20:56:02.183Z,80.10
2018-02-19T20:58:36.482Z,80.30
2018-02-19T21:01:04.666Z,79.50
2018-02-19T21:03:35.098Z,76.70
2018-02-19T21:06:17.144Z,76.70
2018-02-19T21:08:50.604Z,78.40
2018-02-19T21:11:20.529Z,78.30
2018-02-19T21:13:48.850Z,79.90
2018-02-19T21:16:25.482Z,78.10
2018-02-19T21:18:53.716Z,78.10
2018-02-19T21:26:47.459Z,77.20
2018-02-19T21:29:16.393Z,76.60
2018-02-19T21:31:45.605Z,76.60
2018-02-19T21:34:14.750Z,77.60
2018-02-19T21:36:43.727Z,78.20
2018-02-19T21:39:13.084Z,77.10
2018-02-19T21:41:43.852Z,75.10
2018-02-19T21:44:14.872Z,74.10
2018-02-19T21:46:43.462Z,75.40
2018-02-19T21:49:15.916Z,77.00
2018-02-19T21:51:44.101Z,76.00
2018-02-19T21:54:15.284Z,75.40
2018-02-19T21:56:43.445Z,75.30
2018-02-19T21:59:11.670Z,76.40
2018-02-19T22:01:43.385Z,77.00
2018-02-19T22:04:11.822Z,77.50
2018-02-19T22:06:49.294Z,77.40
2018-02-19T22:09:17.698Z,78.60
2018-02-19T22:11:47.813Z,79.50
2018-02-19T22:14:17.262Z,79.00
2018-02-19T22:16:52.252Z,77.40
2018-02-19T22:19:24.659Z,79.20
2018-02-19T22:21:54.371Z,79.20
2018-02-19T22:24:23.648Z,80.90
2018-02-19T22:26:53.656Z,81.10
2018-02-19T22:29:21.849Z,80.90
2018-02-19T22:31:50.620Z,80.70
2018-02-19T22:34:19.782Z,80.90
2018-02-19T22:36:48.614Z,81.00
2018-02-19T22:39:18.915Z,81.80
2018-02-19T22:41:50.016Z,81.60
2018-02-19T22:44:19.391Z,79.90
2018-02-19T22:46:47.664Z,78.20
2018-02-19T22:49:20.725Z,79.30
2018-02-19T22:51:50.819Z,78.40
2018-02-19T22:54:21.583Z,78.50
2018-02-19T22:56:52.169Z,78.00
2018-02-19T22:59:24.834Z,78.30
2018-02-19T23:01:55.353Z,78.40
2018-02-19T23:04:24.398Z,78.80
2018-02-19T23:06:53.087Z,77.80
2018-02-19T23:09:22.660Z,79.10
2018-02-19T23:11:51.048Z,79.40
2018-02-19T23:14:21.861Z,79.10
2018-02-19T23:16:56.985Z,78.50
2018-02-19T23:19:25.513Z,78.00
2018-02-19T23:21:54.681Z,78.80
2018-02-19T23:24:23.378Z,79.30
2018-02-19T23:26:55.487Z,80.00
2018-02-19T23:29:26.836Z,78.60
2018-02-19T23:31:55.496Z,77.90
2018-02-19T23:34:24.458Z,77.10
2018-02-19T23:36:53.879Z,76.30
2018-02-19T23:39:22.976Z,76.50
2018-02-19T23:41:51.931Z,79.00
2018-02-19T23:44:20.101Z,81.10
2018-02-19T23:46:55.115Z,81.70
2018-02-19T23:49:23.343Z,82.50
2018-02-19T23:51:53.255Z,81.80
2018-02-19T23:54:21.456Z,82.60
2018-02-19T23:56:51.817Z,83.30
2018-02-19T23:59:25.200Z,84.10
